Oracle, AZ (85623)

10:18 AM MST on August 23, 2014 (GMT -0700)
Oaks | Change Station
CLOSE
Current Station
Personligvejrstation
Location: Oracle, AZ
Højde: 4550 ft
Vejrstationer i nærheden

Elev 4550 ft 32.61 °N, 110.78 °W | Updated 8 minutes ago

Clear
Klart
86.5 ° F
Føles som 84 ° F
N
4.0
Vind Skiftende Vind VSV
Gusts 4.0 mph

I dag
Høj -- | Lav -- ° F
--% Risiko for nedbør
I går
Høj -- | Lav -- ° F
Precip. -- tommer
5:52 AM 6:58 PM
Aftagende halvmåne, 3% visible
Tryk 29.92 tommer
Sigtbarhed 10.0 mil
Skyer Klart
Varmeindeks 84 ° F
Dugpunkt 50 ° F
Luftfugtighed 28%
Regnmængde 0.00 tommer
Snedybde Ikke tilgængelig.
UV 1.0 fra 12
Pollen 5.30 fra 12
Luftkvalitet Ikke tilgængelig.
Flu Activity Ikke tilgængelig.
METAR KDMA 231658Z AUTO 28002KT 10SM CLR 27/17 A3004 RMK AO2 SLP130 T02740165 $

More Conditions Fewer Conditions

Tryk 29.92 tommer
Sigtbarhed 10.0 mil
Skyer Klart
Varmeindeks 84 ° F
Dugpunkt 50 ° F
Luftfugtighed 28%
Regnmængde 0.00 tommer
Snedybde Ikke tilgængelig.
UV 1.0 fra 12
Pollen 5.30 fra 12
Luftkvalitet Ikke tilgængelig.
Flu Activity Ikke tilgængelig.
METAR KDMA 231658Z AUTO 28002KT 10SM CLR 27/17 A3004 RMK AO2 SLP130 T02740165 $

More Conditions Fewer Conditions

10-Day Weather Forecast

Almanac

Astronomi

Aug. 23, 2014 Opgang Nedgang
Faktisktidspunkt 5:52 AM MST 6:58 PM MST
Civilttusmørke 5:26 AM MST 7:24 PM MST
Nautisktusmørke 4:56 AM MST 7:54 PM MST
Astronomisktusmørke 4:25 AM MST 8:25 PM MST
Måne 4:13 AM MST 5:44 PM MST
Synligtlys’ længde 13h 57m
Dagens længde
13h 06m
Tomorrow will be 1m 52s shorter.
Aftagende halvmåne, 3% of the Moon is Illuminated
I dag
Aftagende halvmåne
Aug. 25
Ny
Sept. 2
Første kvartal
Sept. 8
Fuldmåne
Sept. 15
Sidste kvartal

Ekstremer i dag

State Highs State Lows

Community

WunderPhotos

Upload Photos

1,746,531 Billeder uploaded!

WunderBlogs® & News

By Dr. Jeff Masters
Director of Meteorology, Weather Underground
By Kari Strenfel
Meteorologist, Weather Underground
By Christopher C. Burt
Weather Historian, Weather Underground
August 23, 2014
August 23, 2014
August 23, 2014

Nearby

Snedybde

Station Depth Højde
Workman Creek 2 in 6900 ft
Wildcat 0 in 7850 ft
Heber 0 in 7640 ft
Beaver Head 1 in 7990 ft
Maverick Fork 0 in 9200 ft

Jordskælvsaktivitet

By Distance Mag. Time & Date
No recent earthquake activity has been reported nearby.
Minimum magnitude displayed is 2.5.

Kystnære vandtemperaturer

Sted Temperatur
Ingen stationer rapporterer

Vejrstationer i nærheden